Mineral Wells

About
Name: Mineral Wells
Identifier:  MWL/KMWL
Local Time:  20. Aug 08:53 CDT
Location
Mineral Wells
  United States

Flights per Day
1 flights
Distance: 534km (332mi)
Punctuality
71% (0 flights per day delayed)
Delay Average: 17 minutes
Current Weather
 25 C (Humidity: 78%)
  7kt (12km/h / 8mph) from 140°
  16km (10 mi.)
 
 METAR KMWL 201253Z AUTO 14007KT 10SM CLR 25/21 A3002 RMK AO2 SLP151 T02500206

Current Flights

Departures
Number Departure To Airline
Arrivals
Number Arrival From Airline

Current Delays

Departures
N/A
Arrivals
N/A

Destinations

Top Destinations
Airport Flights
per week
Seats
per week
  Abilene (ABI) 2 - 0 0
  Fort Worth (FTW) 1 - 0 0
  Fort Worth (AFW) 1 - 0 0
  St. Petersburg (PIE) 0 - 0 0
  San Antonio (SAT) 0 - 0 0
  Alamosa (ALS) 0 - 0 0
  Montrose (MTJ) 0 - 0 0
  San Antonio (SKF) 0 - 0 0
  Sweetwater (SWW) 0 - 0 0
  Temple (TPL) 0 - 0 0
  Conroe (CXO) 0 - 0 0
  Pensacola (PNS) 0 - 0 0

Airlines & Planes

Top Airlines
Airline Flights
per Day
Seats
per Day
  Novair 0 -
  Flybe Nordic 0 -
  National Airlines 0 -
Nordwind Airlines 0 -
Jet Charter Inc ( Franklin Lakes Nj ) 0 -
NetJets 0 0
  Nolinor Aviation 0 -
Top Plane Types
Model Flights Seats
Cessna C172 0.7/day - 0
Bombardier Challenger 350 0.1/day - -0.13333333333333333
Cessna C560 0.1/day - 0
Beech 58 0.1/day - 0
Bombardier Challenger 600 0.1/day - 0